Time;durP1;ratioP1;P1;durP2;ratioP2;P2;SDS_P1;SDS_P2;PMS_P1;PMS_P2;Temp;Humidity;BMP_temperature;BMP_pressure;BME280_temperature;BME280_humidity;BME280_pressure;Samples;Min_cycle;Max_cycle;Signal;HPM_P1;HPM_P2
2023/08/23 00:00:03;;;;;;;57.50;31.42;;;;;;;23.51;84.50;94888.69;5110425;28;20204;-43
2023/08/23 00:02:30;;;;;;;63.15;34.42;;;;;;;23.68;84.99;94922.94;5110635;28;20220;-42
2023/08/23 00:04:57;;;;;;;53.47;29.80;;;;;;;23.66;85.56;94918.91;5110238;28;20221;-43
2023/08/23 00:07:26;;;;;;;44.65;25.80;;;;;;;23.65;85.61;94927.78;5110696;28;20181;-43
2023/08/23 00:09:53;;;;;;;36.53;23.17;;;;;;;23.65;86.11;94920.75;5110453;28;20324;-43
2023/08/23 00:12:19;;;;;;;32.03;19.98;;;;;;;23.61;86.52;94923.97;5110165;28;20196;-43
2023/08/23 00:14:46;;;;;;;34.20;20.42;;;;;;;23.59;86.34;94921.56;5110304;28;20554;-42
2023/08/23 00:17:13;;;;;;;30.40;19.00;;;;;;;23.54;86.39;94917.00;5110094;28;20234;-44
2023/08/23 00:19:40;;;;;;;33.63;19.48;;;;;;;23.56;86.45;94911.53;5109795;28;20633;-44
2023/08/23 00:22:06;;;;;;;50.30;29.45;;;;;;;23.52;86.51;94920.81;5109987;28;20201;-43
2023/08/23 00:24:35;;;;;;;45.10;25.83;;;;;;;23.49;87.12;94924.66;5110088;28;20221;-43
2023/08/23 00:27:01;;;;;;;56.50;30.55;;;;;;;23.46;87.34;94921.66;5110152;28;20641;-43
2023/08/23 00:29:28;;;;;;;55.45;30.60;;;;;;;23.45;87.24;94925.28;5110385;28;20614;-43
2023/08/23 00:31:55;;;;;;;60.95;33.17;;;;;;;23.44;87.40;94926.28;5110103;28;20185;-43
2023/08/23 00:34:21;;;;;;;52.95;31.10;;;;;;;23.43;87.37;94920.28;5109808;28;20664;-42
2023/08/23 00:36:48;;;;;;;68.53;34.58;;;;;;;23.36;87.86;94914.31;5109785;28;20598;-43
2023/08/23 00:39:15;;;;;;;69.00;38.65;;;;;;;23.36;87.63;94919.53;5109952;28;20181;-44
2023/08/23 00:41:44;;;;;;;87.68;45.88;;;;;;;23.33;88.53;94916.53;5109739;28;20188;-43
2023/08/23 00:44:11;;;;;;;71.97;40.63;;;;;;;23.33;88.34;94914.72;5110065;28;20584;-44
2023/08/23 00:46:39;;;;;;;78.38;42.17;;;;;;;23.31;88.50;94916.72;5110036;28;20188;-45
2023/08/23 00:49:06;;;;;;;81.13;42.85;;;;;;;23.28;89.01;94922.41;5110082;28;20185;-44
2023/08/23 00:51:33;;;;;;;86.28;44.75;;;;;;;23.24;89.25;94919.41;5110099;28;20196;-44
2023/08/23 00:53:59;;;;;;;72.65;42.10;;;;;;;23.22;89.59;94915.38;5109682;28;20588;-44
2023/08/23 00:56:26;;;;;;;75.43;40.47;;;;;;;23.16;89.54;94909.22;5110018;28;20193;-43
2023/08/23 00:58:55;;;;;;;70.75;39.53;;;;;;;23.19;89.32;94919.25;5109635;28;20188;-42
2023/08/23 01:01:21;;;;;;;64.75;38.50;;;;;;;23.19;89.32;94913.22;5109809;28;20249;-43
2023/08/23 01:03:50;;;;;;;63.50;35.63;;;;;;;23.16;89.89;94909.22;5109818;28;20201;-43
2023/08/23 01:06:30;;;;;;;65.80;35.40;;;;;;;23.15;89.56;94912.03;5109806;28;20184;-45
2023/08/23 01:09:07;;;;;;;57.28;33.92;;;;;;;23.12;89.66;94912.44;5109247;28;20253;-43
2023/08/23 01:11:40;;;;;;;55.83;31.83;;;;;;;23.08;89.80;94922.50;5109920;28;20177;-43
2023/08/23 01:14:15;;;;;;;50.00;31.02;;;;;;;23.04;89.95;94919.50;5109346;28;20196;-44
2023/08/23 01:16:46;;;;;;;49.85;29.80;;;;;;;23.02;90.10;94918.13;5109697;28;20217;-44
2023/08/23 01:19:35;;;;;;;47.22;28.33;;;;;;;23.01;90.35;94924.34;5109121;28;20182;-44
2023/08/23 01:22:04;;;;;;;46.35;27.98;;;;;;;22.98;90.69;94922.16;5109167;28;20219;-44
2023/08/23 01:24:33;;;;;;;44.08;26.23;;;;;;;22.96;90.88;94918.94;5109640;28;20217;-43
2023/08/23 01:27:00;;;;;;;40.90;24.50;;;;;;;22.94;91.24;94928.81;5109093;28;20711;-43
2023/08/23 01:29:26;;;;;;;36.28;22.70;;;;;;;22.95;90.83;94919.97;5109305;28;20197;-45
2023/08/23 01:31:55;;;;;;;36.58;21.73;;;;;;;22.91;91.18;94909.16;5109717;28;20182;-42
2023/08/23 01:34:28;;;;;;;31.17;18.48;;;;;;;22.91;90.93;94911.75;5113018;28;20765;-43
2023/08/23 01:36:55;;;;;;;29.70;18.98;;;;;;;22.91;90.44;94911.75;5112962;28;20246;-43
2023/08/23 01:39:25;;;;;;;27.77;18.02;;;;;;;22.90;90.56;94909.38;5113206;28;20189;-43
2023/08/23 01:41:54;;;;;;;25.05;15.98;;;;;;;22.89;90.38;94913.75;5113113;28;20625;-44
2023/08/23 01:44:21;;;;;;;22.73;15.77;;;;;;;22.90;91.01;94918.00;5114164;28;20212;-43
2023/08/23 01:46:48;;;;;;;15.68;12.10;;;;;;;22.87;90.93;94910.53;5114674;28;20177;-44
2023/08/23 01:49:15;;;;;;;14.45;11.18;;;;;;;22.84;90.29;94912.75;5112995;28;20316;-44
2023/08/23 01:51:42;;;;;;;15.75;12.30;;;;;;;22.79;89.54;94913.38;5113010;28;20192;-43
2023/08/23 01:54:08;;;;;;;16.33;11.60;;;;;;;22.76;89.27;94906.00;5112700;28;20201;-44
2023/08/23 01:56:35;;;;;;;14.27;12.85;;;;;;;22.75;89.41;94904.38;5113249;28;20237;-43
2023/08/23 01:59:03;;;;;;;16.05;11.15;;;;;;;22.76;89.05;94906.78;5113010;28;20184;-44
2023/08/23 02:01:31;;;;;;;12.20;10.93;;;;;;;22.76;89.17;94914.63;5112929;28;20193;-44
2023/08/23 02:03:58;;;;;;;13.52;12.02;;;;;;;22.64;88.60;94892.81;5112226;28;20628;-44
2023/08/23 02:06:25;;;;;;;13.73;10.38;;;;;;;22.73;88.35;94915.03;5113110;28;20189;-43
2023/08/23 02:08:52;;;;;;;11.57;10.35;;;;;;;22.69;87.93;94908.63;5112389;28;20196;-44
2023/08/23 02:11:19;;;;;;;11.38;10.18;;;;;;;22.71;87.72;94913.63;5112855;28;20229;-42
2023/08/23 02:13:45;;;;;;;13.45;10.98;;;;;;;22.69;87.55;94923.47;5112567;28;20184;-42
2023/08/23 02:16:13;;;;;;;15.48;10.27;;;;;;;22.64;87.36;94911.06;5112514;28;20629;-44
2023/08/23 02:18:40;;;;;;;12.65;10.80;;;;;;;22.64;87.42;94910.25;5112647;28;20258;-45
2023/08/23 02:21:07;;;;;;;11.65;10.45;;;;;;;22.66;87.37;94913.44;5112298;28;20200;-42
2023/08/23 02:23:34;;;;;;;15.38;10.70;;;;;;;22.61;87.40;94908.06;5112523;28;20181;-43
2023/08/23 02:26:00;;;;;;;11.52;10.32;;;;;;;22.64;87.25;94913.66;5112198;28;20216;-44
2023/08/23 02:28:27;;;;;;;13.90;10.77;;;;;;;22.63;87.04;94906.06;5112302;28;20199;-44
2023/08/23 02:31:01;;;;;;;11.98;10.82;;;;;;;22.61;87.52;94908.06;5112250;28;20181;-44
2023/08/23 02:33:29;;;;;;;13.02;10.88;;;;;;;22.60;87.44;94912.47;5112055;28;20676;-43
2023/08/23 02:35:56;;;;;;;12.73;10.35;;;;;;;22.61;87.57;94910.66;5111850;28;20223;-44
2023/08/23 02:38:22;;;;;;;13.60;10.48;;;;;;;22.61;87.91;94902.84;5112317;28;20182;-44
2023/08/23 02:40:48;;;;;;;12.15;10.48;;;;;;;22.59;87.57;94912.69;5111932;28;20309;-44
2023/08/23 02:43:15;;;;;;;11.27;10.18;;;;;;;22.58;87.40;94904.03;5111789;28;20246;-43
2023/08/23 02:45:42;;;;;;;11.52;10.32;;;;;;;22.53;87.40;94906.47;5111514;28;20221;-44
2023/08/23 02:48:10;;;;;;;11.18;10.18;;;;;;;22.52;86.94;94913.50;5111976;28;20185;-44
2023/08/23 02:50:39;;;;;;;13.13;11.25;;;;;;;22.30;86.99;94880.91;5111561;28;20652;-44
2023/08/23 02:53:06;;;;;;;16.83;10.52;;;;;;;22.47;86.69;94907.31;5111851;28;20189;-45
2023/08/23 02:55:36;;;;;;;11.95;10.77;;;;;;;22.42;86.57;94907.94;5111782;28;20199;-44
2023/08/23 02:58:03;;;;;;;11.73;10.52;;;;;;;22.39;86.25;94910.13;5111491;28;20220;-43
2023/08/23 03:00:30;;;;;;;11.45;10.10;;;;;;;22.24;86.48;94892.94;5111607;28;20607;-44
2023/08/23 03:02:57;;;;;;;12.57;9.55;;;;;;;22.26;86.69;94906.56;5111299;28;20189;-44
2023/08/23 03:05:24;;;;;;;15.25;11.15;;;;;;;22.20;87.15;94898.78;5111511;28;20269;-44
2023/08/23 03:07:52;;;;;;;13.18;10.30;;;;;;;22.22;86.89;94907.97;5111203;28;20189;-45
2023/08/23 03:10:19;;;;;;;11.45;10.27;;;;;;;22.22;86.78;94907.19;5111563;28;20197;-43
2023/08/23 03:12:45;;;;;;;12.50;11.02;;;;;;;22.18;87.26;94898.97;5111060;28;20189;-44
2023/08/23 03:15:12;;;;;;;13.77;11.30;;;;;;;22.16;87.14;94903.59;5111464;28;20193;-43
2023/08/23 03:17:39;;;;;;;15.00;10.25;;;;;;;22.12;87.38;94894.59;5111563;28;20825;-43
2023/08/23 03:20:07;;;;;;;14.02;11.25;;;;;;;22.15;87.92;94909.00;5111263;28;20219;-43
2023/08/23 03:22:34;;;;;;;14.52;11.05;;;;;;;22.15;87.97;94909.81;5111007;28;20196;-42
2023/08/23 03:25:02;;;;;;;12.23;10.93;;;;;;;22.13;88.36;94911.00;5111069;28;20290;-43
2023/08/23 03:27:28;;;;;;;13.02;11.40;;;;;;;22.08;88.64;94909.00;5110935;28;20188;-44
2023/08/23 03:29:55;;;;;;;17.92;11.00;;;;;;;22.03;89.06;94914.81;5111560;28;20185;-45
2023/08/23 03:32:22;;;;;;;12.82;10.77;;;;;;;22.00;89.27;94906.59;5110990;28;20196;-43
2023/08/23 03:34:49;;;;;;;12.35;11.07;;;;;;;22.00;89.39;94909.19;5111507;28;20193;-44
2023/08/23 03:37:16;;;;;;;16.52;11.10;;;;;;;21.93;89.95;94897.97;5111893;28;20185;-45
2023/08/23 03:39:43;;;;;;;15.45;11.20;;;;;;;21.94;90.22;94910.81;5111190;28;20199;-43
2023/08/23 03:42:11;;;;;;;16.52;11.85;;;;;;;21.75;90.20;94889.00;5111026;28;20185;-43
2023/08/23 03:44:37;;;;;;;12.65;11.23;;;;;;;21.90;90.65;94917.44;5110805;28;20208;-44
2023/08/23 03:47:04;;;;;;;15.38;11.30;;;;;;;21.82;90.59;94909.81;5111022;28;20238;-44
2023/08/23 03:49:31;;;;;;;13.50;11.90;;;;;;;21.82;91.22;94907.22;5110516;28;20204;-43
2023/08/23 03:51:58;;;;;;;16.33;11.57;;;;;;;21.82;91.19;94914.25;5110950;28;20188;-44
2023/08/23 03:54:25;;;;;;;13.18;11.73;;;;;;;21.82;91.42;94912.44;5110063;28;20189;-44
2023/08/23 03:56:52;;;;;;;15.13;12.00;;;;;;;21.74;91.67;94899.63;5110396;28;20571;-43
2023/08/23 03:59:20;;;;;;;13.52;11.05;;;;;;;21.81;91.64;94908.22;5110804;28;20182;-44
2023/08/23 04:01:46;;;;;;;13.43;11.65;;;;;;;21.82;91.65;94909.03;5110587;28;20197;-43
2023/08/23 04:04:14;;;;;;;13.52;12.13;;;;;;;21.84;91.81;94909.63;5110318;28;20200;-44
2023/08/23 04:06:41;;;;;;;16.58;12.15;;;;;;;21.85;91.71;94909.44;5110627;28;20315;-43
2023/08/23 04:09:08;;;;;;;20.25;11.90;;;;;;;21.89;91.32;94915.84;5110388;28;20705;-45
2023/08/23 04:11:34;;;;;;;18.58;12.38;;;;;;;21.92;90.84;94904.19;5109947;28;20181;-44
2023/08/23 04:14:01;;;;;;;13.57;11.90;;;;;;;21.94;90.64;94913.41;5110003;28;20186;-44
2023/08/23 04:16:29;;;;;;;16.17;11.52;;;;;;;21.99;90.36;94905.00;5110048;28;20192;-43
2023/08/23 04:18:56;;;;;;;15.85;12.05;;;;;;;22.01;90.00;94910.78;5110321;28;20192;-43
2023/08/23 04:21:24;;;;;;;14.75;12.02;;;;;;;22.02;89.80;94913.22;5109981;28;20193;-43
2023/08/23 04:23:52;;;;;;;12.88;11.38;;;;;;;22.06;89.58;94913.59;5110221;28;20193;-44
2023/08/23 04:26:19;;;;;;;13.68;11.75;;;;;;;21.67;89.19;94833.72;5109938;28;20291;-44
2023/08/23 04:28:46;;;;;;;16.00;11.20;;;;;;;22.20;88.74;94911.81;5110250;28;20187;-44
2023/08/23 04:31:13;;;;;;;13.27;11.82;;;;;;;22.25;88.46;94912.00;5109713;28;20545;-44
2023/08/23 04:33:42;;;;;;;13.75;10.75;;;;;;;22.29;88.16;94911.38;5109803;28;20224;-44
2023/08/23 04:36:09;;;;;;;14.60;13.00;;;;;;;22.36;87.83;94911.34;5110061;28;20611;-44
2023/08/23 04:38:36;;;;;;;15.82;12.40;;;;;;;22.49;87.08;94910.50;5109870;28;20213;-44
2023/08/23 04:41:04;;;;;;;13.13;11.45;;;;;;;22.67;86.46;94913.25;5109747;28;20193;-43
2023/08/23 04:43:31;;;;;;;15.25;12.00;;;;;;;22.88;85.67;94913.94;5109951;28;20192;-45
2023/08/23 04:45:59;;;;;;;16.88;12.95;;;;;;;23.08;84.34;94914.69;5109846;28;20711;-43
2023/08/23 04:48:26;;;;;;;14.10;12.50;;;;;;;23.34;82.58;94920.75;5110054;28;20185;-43
2023/08/23 04:50:56;;;;;;;17.15;13.05;;;;;;;23.52;80.77;94926.81;5109761;28;20189;-43
2023/08/23 04:53:23;;;;;;;14.55;12.32;;;;;;;23.59;79.57;94916.34;5109788;28;20189;-45
2023/08/23 04:55:50;;;;;;;15.77;13.00;;;;;;;23.81;78.63;94924.63;5110022;28;20197;-43
2023/08/23 04:58:17;;;;;;;20.25;13.38;;;;;;;23.77;77.43;94902.56;5109815;28;20193;-44
2023/08/23 05:00:44;;;;;;;13.23;11.93;;;;;;;23.82;76.23;94915.78;5110086;28;20208;-44
2023/08/23 05:03:11;;;;;;;17.42;12.00;;;;;;;23.91;76.60;94932.78;5109769;28;20233;-43
2023/08/23 05:05:38;;;;;;;16.23;12.25;;;;;;;23.84;76.38;94905.94;5109859;28;20238;-44
2023/08/23 05:08:07;;;;;;;16.05;11.82;;;;;;;24.07;76.04;94928.03;5113528;28;20556;-44
2023/08/23 05:10:34;;;;;;;14.73;12.48;;;;;;;24.13;76.13;94921.94;5113764;28;20276;-43
2023/08/23 05:13:01;;;;;;;15.15;12.85;;;;;;;24.24;75.29;94926.44;5113925;28;20695;-45
2023/08/23 05:15:28;;;;;;;17.35;11.52;;;;;;;24.27;76.11;94913.75;5114136;28;20181;-44
2023/08/23 05:17:55;;;;;;;20.40;13.13;;;;;;;24.19;75.25;94898.34;5113783;28;20188;-44
2023/08/23 05:20:22;;;;;;;21.67;13.27;;;;;;;24.46;74.37;94927.66;5114033;28;20196;-44
2023/08/23 05:22:49;;;;;;;22.13;12.70;;;;;;;24.60;73.85;94927.50;5113920;28;20181;-43
2023/08/23 05:25:17;;;;;;;14.02;12.52;;;;;;;24.76;73.59;94924.28;5113821;28;20216;-45
2023/08/23 05:27:44;;;;;;;17.42;13.95;;;;;;;24.98;72.15;94929.84;5114223;28;20271;-46
2023/08/23 05:30:11;;;;;;;18.58;13.68;;;;;;;25.18;71.24;94933.03;5113955;28;20185;-44
2023/08/23 05:32:38;;;;;;;19.88;13.10;;;;;;;25.45;70.16;94932.66;5113635;28;20224;-44
2023/08/23 05:35:07;;;;;;;25.08;13.63;;;;;;;25.57;69.31;94935.31;5113614;28;20185;-45
2023/08/23 05:37:34;;;;;;;18.13;12.32;;;;;;;25.72;68.70;94935.66;5113863;28;20181;-44
2023/08/23 05:40:00;;;;;;;18.80;12.98;;;;;;;25.95;67.80;94924.41;5113588;28;20221;-43
2023/08/23 05:42:30;;;;;;;19.83;13.10;;;;;;;26.09;67.31;94928.44;5113857;28;20177;-44
2023/08/23 05:44:57;;;;;;;16.73;12.98;;;;;;;26.24;66.47;94927.97;5113431;28;20196;-44
2023/08/23 05:47:25;;;;;;;14.63;12.50;;;;;;;26.40;66.49;94929.88;5113377;28;20184;-43
2023/08/23 05:49:52;;;;;;;18.20;12.50;;;;;;;26.63;65.95;94925.66;5113328;28;20540;-45
2023/08/23 05:52:19;;;;;;;22.35;12.50;;;;;;;26.90;63.94;94916.22;5113150;28;20695;-44
2023/08/23 05:54:46;;;;;;;16.50;12.32;;;;;;;27.09;63.41;94919.47;5113317;28;20228;-45
2023/08/23 05:57:12;;;;;;;22.20;13.20;;;;;;;27.26;63.23;94927.41;5113355;28;20228;-45
2023/08/23 05:59:40;;;;;;;17.10;12.20;;;;;;;27.48;62.23;94924.88;5112986;28;20185;-43
2023/08/23 06:02:07;;;;;;;14.18;12.68;;;;;;;27.68;61.64;94919.19;5112951;28;20288;-43
2023/08/23 06:04:34;;;;;;;15.68;12.43;;;;;;;27.68;61.12;94914.72;5112918;28;20197;-44
2023/08/23 06:07:03;;;;;;;13.32;11.68;;;;;;;27.90;60.74;94919.28;5112647;28;20277;-44
2023/08/23 06:09:32;;;;;;;14.65;12.52;;;;;;;28.11;59.83;94928.25;5112886;28;20185;-45
2023/08/23 06:11:59;;;;;;;12.80;11.15;;;;;;;28.22;59.53;94922.88;5112592;28;20190;-44
2023/08/23 06:14:26;;;;;;;16.45;12.43;;;;;;;28.57;58.46;94928.91;5113058;28;20181;-44
2023/08/23 06:16:54;;;;;;;20.92;14.02;;;;;;;28.57;57.90;94926.25;5112497;28;20200;-43
2023/08/23 06:19:21;;;;;;;17.42;13.73;;;;;;;28.58;58.33;94923.38;5111893;28;20538;-43
2023/08/23 06:21:48;;;;;;;14.85;12.80;;;;;;;28.64;57.61;94922.41;5112209;28;20200;-44
2023/08/23 06:24:14;;;;;;;14.15;12.48;;;;;;;28.67;57.76;94921.13;5112321;28;20700;-43
2023/08/23 06:26:43;;;;;;;13.15;11.82;;;;;;;28.82;58.16;94923.94;5112602;28;20231;-44
2023/08/23 06:29:10;;;;;;;13.73;12.40;;;;;;;28.91;56.89;94903.22;5112533;28;20700;-44
2023/08/23 06:31:37;;;;;;;13.20;11.60;;;;;;;29.12;56.83;94926.13;5112183;28;20180;-45
2023/08/23 06:34:05;;;;;;;15.60;13.15;;;;;;;29.31;55.80;94923.94;5112219;28;20233;-43
2023/08/23 06:36:31;;;;;;;12.73;11.38;;;;;;;29.40;56.09;94919.81;5112078;28;20193;-44
2023/08/23 06:38:58;;;;;;;20.20;12.13;;;;;;;29.78;55.26;94925.97;5112385;28;20189;-44
2023/08/23 06:41:25;;;;;;;14.73;11.07;;;;;;;30.21;53.83;94917.06;5112212;28;20195;-43
2023/08/23 06:43:59;;;;;;;17.50;11.35;;;;;;;30.69;51.93;94914.38;5112042;28;20241;-42
2023/08/23 06:46:26;;;;;;;16.95;12.63;;;;;;;30.77;51.35;94923.69;5112154;28;20232;-43
2023/08/23 06:48:53;;;;;;;13.07;11.88;;;;;;;30.72;51.72;94916.53;5111934;28;20196;-44
2023/08/23 06:51:21;;;;;;;15.00;12.95;;;;;;;30.61;51.39;94910.38;5112157;28;20193;-44
2023/08/23 06:53:48;;;;;;;14.75;12.20;;;;;;;30.49;52.04;94923.03;5111640;28;20231;-44
2023/08/23 06:56:15;;;;;;;13.18;11.40;;;;;;;30.60;52.26;94911.44;5111977;28;20181;-44
2023/08/23 06:58:42;;;;;;;15.73;11.98;;;;;;;30.81;51.57;94922.13;5111765;28;20195;-44
2023/08/23 07:01:14;;;;;;;12.90;11.60;;;;;;;31.02;51.43;94928.25;5112141;28;20294;-43
2023/08/23 07:03:41;;;;;;;13.10;11.90;;;;;;;31.29;50.16;94928.88;5111346;28;20284;-43
2023/08/23 07:06:08;;;;;;;16.20;12.40;;;;;;;31.57;49.72;94926.81;5111435;28;20225;-43
2023/08/23 07:08:36;;;;;;;21.77;11.70;;;;;;;31.69;49.07;94930.78;5111903;28;20193;-45
2023/08/23 07:11:04;;;;;;;21.77;12.30;;;;;;;31.75;49.12;94926.28;5111825;28;20285;-44
2023/08/23 07:13:31;;;;;;;17.85;10.90;;;;;;;31.94;49.02;94927.34;5111335;28;20181;-46
2023/08/23 07:15:58;;;;;;;15.98;9.98;;;;;;;32.22;47.42;94928.66;5111508;28;20189;-43
2023/08/23 07:18:25;;;;;;;13.77;10.30;;;;;;;32.32;47.29;94927.03;5111083;28;20238;-44
2023/08/23 07:20:52;;;;;;;12.93;10.65;;;;;;;32.51;47.16;94928.06;5112309;28;20196;-44
2023/08/23 07:23:18;;;;;;;12.07;10.32;;;;;;;32.76;46.23;94929.81;5111340;28;20196;-45
2023/08/23 07:25:46;;;;;;;11.57;10.48;;;;;;;32.93;45.78;94925.00;5111482;28;20201;-43
2023/08/23 07:28:13;;;;;;;13.18;9.80;;;;;;;33.16;45.43;94926.22;5111345;28;20193;-46
2023/08/23 07:30:45;;;;;;;15.07;11.18;;;;;;;33.32;45.16;94926.91;5111188;28;20212;-44
2023/08/23 07:33:12;;;;;;;12.90;9.80;;;;;;;33.45;45.06;94926.31;5110974;28;20217;-44
2023/08/23 07:35:38;;;;;;;13.50;10.45;;;;;;;33.68;44.65;94916.88;5110979;28;20200;-43
2023/08/23 07:38:05;;;;;;;17.65;11.77;;;;;;;33.79;44.25;94914.94;5111253;28;20181;-43
2023/08/23 07:40:32;;;;;;;14.00;11.60;;;;;;;33.79;44.40;94922.88;5110906;28;20185;-44
2023/08/23 07:43:00;;;;;;;11.57;10.40;;;;;;;33.86;43.63;94917.28;5111208;28;20208;-45
2023/08/23 07:45:27;;;;;;;14.63;11.40;;;;;;;33.80;43.73;94908.53;5110781;28;20199;-45
2023/08/23 07:47:53;;;;;;;11.43;9.73;;;;;;;33.73;43.65;94908.09;5111129;28;20213;-45
2023/08/23 07:50:20;;;;;;;15.02;10.05;;;;;;;33.64;43.57;94915.06;5110630;28;20192;-44
2023/08/23 07:52:47;;;;;;;15.02;10.98;;;;;;;33.54;44.24;94910.63;5110540;28;20638;-44
2023/08/23 07:55:14;;;;;;;15.10;10.85;;;;;;;33.41;44.99;94909.34;5110588;28;20192;-44
2023/08/23 07:57:41;;;;;;;12.38;9.63;;;;;;;33.21;44.93;94907.63;5110953;28;20184;-44
2023/08/23 08:00:10;;;;;;;11.65;9.05;;;;;;;33.25;44.57;94910.53;5110487;28;20254;-43
2023/08/23 08:02:37;;;;;;;13.00;9.23;;;;;;;33.48;43.94;94909.06;5110599;28;20181;-44
2023/08/23 08:05:04;;;;;;;12.00;9.15;;;;;;;33.73;44.18;94912.63;5110642;28;20204;-43
2023/08/23 08:07:31;;;;;;;15.77;9.82;;;;;;;34.05;42.90;94917.38;5110119;28;20227;-44
2023/08/23 08:09:58;;;;;;;10.35;9.02;;;;;;;34.23;42.48;94913.22;5110625;28;20197;-44
2023/08/23 08:12:25;;;;;;;17.13;9.57;;;;;;;34.19;41.88;94907.69;5110212;28;20189;-44
2023/08/23 08:14:51;;;;;;;11.70;9.57;;;;;;;34.00;42.32;94880.28;5110599;28;20193;-44
2023/08/23 08:17:19;;;;;;;10.50;9.45;;;;;;;34.18;42.19;94906.91;5109985;28;20241;-43
2023/08/23 08:19:46;;;;;;;10.50;9.27;;;;;;;34.36;41.87;94908.03;5110638;28;20181;-43
2023/08/23 08:22:13;;;;;;;11.82;9.45;;;;;;;34.50;41.60;94899.41;5109991;28;20249;-43
2023/08/23 08:24:40;;;;;;;11.80;8.65;;;;;;;34.59;41.38;94895.88;5110196;28;20589;-52
2023/08/23 08:27:07;;;;;;;10.90;9.57;;;;;;;34.48;41.64;94881.13;5109883;28;20213;-44
2023/08/23 08:29:33;;;;;;;14.40;9.90;;;;;;;34.64;41.38;94903.00;5110230;28;20216;-45
2023/08/23 08:32:01;;;;;;;11.45;9.05;;;;;;;34.62;41.03;94873.25;5109826;28;20644;-45
2023/08/23 08:34:29;;;;;;;13.52;9.00;;;;;;;34.53;41.09;94841.19;5110023;28;20301;-45
2023/08/23 08:36:56;;;;;;;9.18;8.30;;;;;;;35.01;41.35;94894.28;5110020;28;20192;-44
2023/08/23 08:39:23;;;;;;;17.00;9.27;;;;;;;35.03;40.90;94889.50;5110357;28;20185;-44
2023/08/23 08:41:51;;;;;;;14.70;9.25;;;;;;;34.98;40.81;94897.53;5109929;28;20200;-44
2023/08/23 08:44:18;;;;;;;12.48;8.98;;;;;;;34.88;40.87;94893.09;5109852;28;20192;-44
2023/08/23 08:46:45;;;;;;;10.25;9.25;;;;;;;34.84;40.91;94892.06;5109736;28;20216;-44
2023/08/23 08:49:12;;;;;;;16.48;9.82;;;;;;;34.89;40.93;94883.28;5110089;28;20238;-44
2023/08/23 08:51:46;;;;;;;9.77;8.88;;;;;;;34.95;40.37;94885.56;5109825;28;20214;-44
2023/08/23 08:54:16;;;;;;;14.82;8.77;;;;;;;35.07;40.14;94892.38;5109894;28;20203;-45
2023/08/23 08:56:47;;;;;;;9.32;8.05;;;;;;;35.03;40.21;94886.03;5109749;28;20196;-45
2023/08/23 08:59:14;;;;;;;9.98;8.25;;;;;;;35.06;40.12;94882.78;5109484;28;20189;-43
2023/08/23 09:01:43;;;;;;;9.27;7.78;;;;;;;35.09;39.52;94875.03;5109825;28;20608;-44
2023/08/23 09:04:10;;;;;;;11.35;8.50;;;;;;;35.14;39.75;94874.94;5109783;28;20184;-42
2023/08/23 09:06:38;;;;;;;13.02;8.80;;;;;;;35.15;39.91;94873.09;5109825;28;20212;-44
2023/08/23 09:09:07;;;;;;;8.85;7.65;;;;;;;35.29;39.43;94871.28;5109747;28;20192;-44
2023/08/23 09:11:34;;;;;;;9.52;8.13;;;;;;;35.31;39.20;94866.47;5110125;28;20271;-44
2023/08/23 09:14:13;;;;;;;9.30;6.90;;;;;;;35.37;38.52;94865.31;5109992;28;20185;-44
2023/08/23 09:16:40;;;;;;;12.50;7.40;;;;;;;35.36;37.63;94855.75;5109790;28;20244;-45
2023/08/23 09:19:09;;;;;;;8.85;7.07;;;;;;;35.50;37.48;94852.38;5109778;28;20188;-43
2023/08/23 09:21:36;;;;;;;7.22;6.53;;;;;;;35.50;36.33;94853.19;5109810;28;20235;-44
2023/08/23 09:24:04;;;;;;;8.75;6.70;;;;;;;35.53;35.37;94846.47;5109564;28;20193;-45
2023/08/23 09:26:32;;;;;;;7.30;6.70;;;;;;;35.51;35.47;94840.66;5109659;28;20307;-44
2023/08/23 09:28:59;;;;;;;7.35;6.65;;;;;;;35.55;34.81;94846.97;5109744;28;20197;-45
2023/08/23 09:31:26;;;;;;;10.95;6.50;;;;;;;35.50;34.93;94841.75;5110117;28;20238;-44
2023/08/23 09:33:53;;;;;;;7.47;6.13;;;;;;;35.39;34.24;94836.53;5109243;28;20232;-43
2023/08/23 09:36:28;;;;;;;6.93;6.13;;;;;;;35.37;34.52;94837.94;5109494;28;20248;-44
2023/08/23 09:38:59;;;;;;;7.85;6.15;;;;;;;35.35;34.57;94830.22;5109704;28;20216;-44
2023/08/23 09:41:27;;;;;;;7.82;6.15;;;;;;;35.40;34.83;94824.81;5109521;28;20197;-44
2023/08/23 09:43:57;;;;;;;19.67;6.60;;;;;;;35.29;34.28;94830.63;5108254;28;20193;-45
2023/08/23 09:46:28;;;;;;;8.18;7.25;;;;;;;35.14;34.55;94819.09;5109469;28;20241;-46
2023/08/23 09:48:56;;;;;;;11.55;6.65;;;;;;;35.19;34.30;94813.75;5108186;28;20204;-44
2023/08/23 09:51:25;;;;;;;9.20;6.30;;;;;;;35.15;34.39;94812.75;5109667;28;20188;-44
2023/08/23 09:53:56;;;;;;;7.13;6.32;;;;;;;35.03;34.36;94809.72;5111342;28;20215;-43
2023/08/23 09:56:23;;;;;;;7.30;6.60;;;;;;;35.04;34.37;94799.88;5112909;28;20193;-44
2023/08/23 09:58:50;;;;;;;6.47;5.85;;;;;;;35.02;34.52;94794.03;5113305;28;20192;-45
2023/08/23 10:01:19;;;;;;;6.95;6.32;;;;;;;34.72;34.69;94747.44;5113122;28;20181;-44
2023/08/23 10:03:46;;;;;;;7.10;6.40;;;;;;;35.06;34.46;94795.06;5113077;28;20189;-42
2023/08/23 10:06:13;;;;;;;10.52;7.25;;;;;;;35.02;34.48;94805.50;5112755;28;20692;-45
2023/08/23 10:08:40;;;;;;;8.40;6.35;;;;;;;34.87;34.83;94769.25;5112976;28;20189;-45
2023/08/23 10:11:07;;;;;;;8.35;6.97;;;;;;;34.98;34.88;94796.53;5112684;28;20193;-44
2023/08/23 10:13:36;;;;;;;8.13;7.07;;;;;;;35.05;35.29;94801.44;5113464;28;20267;-44
2023/08/23 10:16:05;;;;;;;7.28;6.55;;;;;;;35.04;35.32;94802.53;5112552;28;20227;-43
2023/08/23 10:18:35;;;;;;;10.40;7.82;;;;;;;35.01;35.07;94803.91;5112778;28;20193;-45
2023/08/23 10:21:03;;;;;;;9.15;6.70;;;;;;;34.93;35.49;94796.53;5112400;28;20193;-45
2023/08/23 10:23:33;;;;;;;7.45;6.45;;;;;;;34.89;34.85;94800.88;5112581;28;20193;-45
2023/08/23 10:26:02;;;;;;;8.32;6.50;;;;;;;34.81;35.19;94799.66;5112671;28;20599;-45
2023/08/23 10:28:28;;;;;;;6.93;6.22;;;;;;;34.73;35.03;94784.34;5112192;28;20213;-43
2023/08/23 10:30:59;;;;;;;7.90;7.07;;;;;;;34.76;35.73;94785.63;5112444;28;20197;-44
2023/08/23 10:33:26;;;;;;;9.82;7.25;;;;;;;34.74;36.12;94780.63;5112244;28;20240;-43
2023/08/23 10:35:54;;;;;;;8.15;7.45;;;;;;;34.83;36.11;94783.41;5112321;28;20568;-44
2023/08/23 10:38:22;;;;;;;7.72;7.03;;;;;;;34.90;35.93;94792.59;5112831;28;20265;-44
2023/08/23 10:40:49;;;;;;;12.88;6.78;;;;;;;34.88;35.82;94778.81;5112749;28;20330;-46
2023/08/23 10:43:18;;;;;;;11.38;6.47;;;;;;;34.98;35.31;94795.72;5112946;28;20358;-45
2023/08/23 10:45:52;;;;;;;7.97;6.28;;;;;;;35.05;34.68;94775.66;5112374;28;20532;-45
2023/08/23 10:48:20;;;;;;;7.68;6.90;;;;;;;35.05;35.17;94775.66;5112221;28;20220;-46
2023/08/23 10:50:48;;;;;;;7.45;6.75;;;;;;;35.05;34.73;94751.72;5112302;28;20220;-45
2023/08/23 10:53:16;;;;;;;6.85;6.15;;;;;;;35.33;34.50;94775.75;5111999;28;20197;-45
2023/08/23 10:55:44;;;;;;;8.48;5.93;;;;;;;35.46;33.52;94774.22;5112082;28;20544;-43
2023/08/23 10:58:13;;;;;;;7.68;6.15;;;;;;;35.46;33.08;94776.88;5111839;28;20189;-44
2023/08/23 11:00:41;;;;;;;7.40;6.32;;;;;;;35.48;32.62;94772.84;5113740;28;20186;-45
2023/08/23 11:03:08;;;;;;;6.57;5.97;;;;;;;35.54;31.35;94770.91;5111561;28;20180;-45
2023/08/23 11:05:35;;;;;;;8.00;6.20;;;;;;;35.48;31.86;94778.16;5111686;28;20189;-44
2023/08/23 11:08:02;;;;;;;7.88;5.78;;;;;;;35.53;32.17;94777.28;5111365;28;20224;-46
2023/08/23 11:10:30;;;;;;;6.97;5.75;;;;;;;35.64;32.58;94765.41;5111447;28;20188;-44
2023/08/23 11:12:57;;;;;;;6.88;6.28;;;;;;;35.83;32.57;94752.78;5111794;28;20189;-45
2023/08/23 11:15:24;;;;;;;7.68;6.72;;;;;;;35.88;32.78;94757.22;5111725;28;20193;-45
2023/08/23 11:17:51;;;;;;;9.65;6.22;;;;;;;35.86;33.28;94759.41;5111192;28;20717;-44
2023/08/23 11:20:18;;;;;;;8.88;5.55;;;;;;;35.75;33.47;94763.31;5111380;28;20610;-43
2023/08/23 11:22:45;;;;;;;7.50;6.53;;;;;;;35.52;34.02;94760.53;5111064;28;20686;-44